Time;durP1;ratioP1;P1;durP2;ratioP2;P2;SDS_P1;SDS_P2;PMS_P1;PMS_P2;Temp;Humidity;BMP_temperature;BMP_pressure;BME280_temperature;BME280_humidity;BME280_pressure;Samples;Min_cycle;Max_cycle;Signal;HPM_P1;HPM_P2
2022/03/05 00:00:55;;;;;;;25.63;14.93;;;;;;;;;;6205993;28;20550;-74
2022/03/05 00:03:57;;;;;;;22.38;13.35;;;;;;;;;;6205355;28;20043;-73
2022/03/05 00:06:59;;;;;;;30.88;15.68;;;;;;;;;;6207404;28;20130;-74
2022/03/05 00:10:01;;;;;;;24.60;14.40;;;;;;;;;;6205114;28;20144;-76
2022/03/05 00:13:04;;;;;;;21.88;14.00;;;;;;;;;;6201050;28;20042;-73
2022/03/05 00:16:05;;;;;;;22.13;13.75;;;;;;;;;;6210478;28;20104;-74
2022/03/05 00:19:07;;;;;;;21.40;12.70;;;;;;;;;;6206538;28;20122;-74
2022/03/05 00:22:09;;;;;;;24.95;13.63;;;;;;;;;;6206316;28;20173;-73
2022/03/05 00:25:11;;;;;;;22.35;13.32;;;;;;;;;;6211286;28;20188;-73
2022/03/05 00:28:14;;;;;;;20.75;12.63;;;;;;;;;;6212112;28;20073;-74
2022/03/05 00:31:16;;;;;;;19.65;11.55;;;;;;;;;;6208762;28;20141;-73
2022/03/05 00:34:18;;;;;;;26.08;13.88;;;;;;;;;;6205855;28;20097;-73
2022/03/05 00:37:19;;;;;;;25.92;12.73;;;;;;;;;;6205615;28;20034;-73
2022/03/05 00:40:21;;;;;;;23.13;12.85;;;;;;;;;;6207115;28;20052;-74
2022/03/05 00:43:24;;;;;;;22.02;12.38;;;;;;;;;;6204245;28;20113;-75
2022/03/05 00:46:25;;;;;;;23.40;12.02;;;;;;;;;;6206074;28;20136;-75
2022/03/05 00:49:27;;;;;;;19.33;12.27;;;;;;;;;;6201551;28;20042;-73
2022/03/05 00:52:29;;;;;;;19.67;11.50;;;;;;;;;;6207311;28;20528;-73
2022/03/05 00:55:30;;;;;;;24.10;12.73;;;;;;;;;;6211264;28;20131;-73
2022/03/05 00:58:33;;;;;;;20.80;12.77;;;;;;;;;;6207588;28;20563;-73
2022/03/05 01:01:35;;;;;;;22.27;11.80;;;;;;;;;;6206730;28;20561;-73
2022/03/05 01:04:36;;;;;;;20.75;12.20;;;;;;;;;;6204584;28;20173;-73
2022/03/05 01:07:38;;;;;;;20.48;12.07;;;;;;;;;;6205643;28;20042;-72
2022/03/05 01:10:40;;;;;;;22.35;12.77;;;;;;;;;;6208193;28;20398;-71
2022/03/05 01:13:43;;;;;;;23.80;13.32;;;;;;;;;;6208247;28;20093;-73
2022/03/05 01:16:45;;;;;;;25.88;13.15;;;;;;;;;;6204197;28;20037;-72
2022/03/05 01:19:46;;;;;;;21.92;12.07;;;;;;;;;;6205681;28;20111;-74
2022/03/05 01:22:48;;;;;;;22.67;12.65;;;;;;;;;;6200859;28;20149;-75
2022/03/05 01:25:49;;;;;;;21.15;12.20;;;;;;;;;;6207632;28;20200;-75
2022/03/05 01:28:52;;;;;;;24.20;11.63;;;;;;;;;;6209982;28;20490;-74
2022/03/05 01:31:54;;;;;;;22.02;13.10;;;;;;;;;;6201158;28;20505;-75
2022/03/05 01:34:55;;;;;;;20.05;11.10;;;;;;;;;;6203491;28;20050;-74
2022/03/05 01:37:57;;;;;;;18.73;10.70;;;;;;;;;;6205007;28;20047;-74
2022/03/05 01:40:59;;;;;;;21.95;12.15;;;;;;;;;;6207124;28;20125;-74
2022/03/05 01:44:02;;;;;;;19.40;11.98;;;;;;;;;;6209264;28;20495;-74
2022/03/05 01:47:05;;;;;;;21.25;11.55;;;;;;;;;;6208851;28;20081;-73
2022/03/05 01:50:08;;;;;;;19.73;11.73;;;;;;;;;;6212599;28;20054;-76
2022/03/05 01:53:10;;;;;;;20.35;11.90;;;;;;;;;;6211220;28;20053;-76
2022/03/05 01:56:13;;;;;;;21.52;11.75;;;;;;;;;;6205820;28;20054;-76
2022/03/05 01:59:16;;;;;;;19.90;11.50;;;;;;;;;;6197829;28;20062;-74
2022/03/05 02:02:18;;;;;;;23.83;11.97;;;;;;;;;;6207819;28;20061;-75
2022/03/05 02:05:19;;;;;;;21.85;12.23;;;;;;;;;;6207811;28;20434;-76
2022/03/05 02:08:21;;;;;;;20.27;12.35;;;;;;;;;;6208033;28;20041;-77
2022/03/05 02:11:23;;;;;;;21.40;12.18;;;;;;;;;;6205975;28;20073;-76
2022/03/05 02:14:26;;;;;;;20.60;12.80;;;;;;;;;;6205539;28;20128;-79
2022/03/05 02:17:28;;;;;;;18.67;11.95;;;;;;;;;;6206637;28;20124;-79
2022/03/05 02:20:31;;;;;;;25.35;12.40;;;;;;;;;;6207678;28;20053;-77
2022/03/05 02:23:32;;;;;;;29.33;12.80;;;;;;;;;;6202799;28;20117;-76
2022/03/05 02:26:34;;;;;;;24.15;13.32;;;;;;;;;;6210021;28;20111;-77
2022/03/05 02:29:36;;;;;;;20.40;11.65;;;;;;;;;;6210366;28;20049;-78
2022/03/05 02:32:38;;;;;;;22.27;12.43;;;;;;;;;;6209737;28;20149;-77
2022/03/05 02:35:43;;;;;;;26.13;12.90;;;;;;;;;;6210078;28;20046;-78
2022/03/05 02:38:44;;;;;;;21.48;12.70;;;;;;;;;;6216859;28;20205;-76
2022/03/05 02:41:46;;;;;;;26.58;12.90;;;;;;;;;;6210241;28;20132;-77
2022/03/05 02:44:47;;;;;;;24.95;13.13;;;;;;;;;;6213778;28;20514;-77
2022/03/05 02:47:49;;;;;;;20.42;12.43;;;;;;;;;;6207007;28;20187;-77
2022/03/05 02:50:52;;;;;;;19.90;12.50;;;;;;;;;;6209680;28;20077;-79
2022/03/05 02:53:54;;;;;;;19.95;11.88;;;;;;;;;;6203159;28;20050;-75
2022/03/05 02:56:55;;;;;;;25.45;13.35;;;;;;;;;;6205732;28;20133;-73
2022/03/05 02:59:57;;;;;;;21.48;12.65;;;;;;;;;;6207285;28;20549;-77
2022/03/05 03:02:59;;;;;;;21.85;12.82;;;;;;;;;;6208767;28;20116;-73
2022/03/05 03:06:02;;;;;;;18.50;11.73;;;;;;;;;;6219672;28;20180;-74
2022/03/05 03:09:03;;;;;;;20.85;12.52;;;;;;;;;;6210971;28;20132;-75
2022/03/05 03:12:05;;;;;;;20.85;13.07;;;;;;;;;;6214013;28;20159;-72
2022/03/05 03:15:11;;;;;;;19.38;11.93;;;;;;;;;;6212441;28;20080;-74
2022/03/05 03:18:12;;;;;;;22.48;12.85;;;;;;;;;;6213268;28;20105;-74
2022/03/05 03:21:15;;;;;;;18.58;11.93;;;;;;;;;;6212554;28;20501;-75
2022/03/05 03:24:17;;;;;;;21.00;12.38;;;;;;;;;;6212842;28;20274;-74
2022/03/05 03:27:18;;;;;;;20.25;12.05;;;;;;;;;;6210617;28;20124;-75
2022/03/05 03:30:20;;;;;;;19.33;12.13;;;;;;;;;;6208134;28;20137;-82
2022/03/05 03:33:21;;;;;;;21.23;11.18;;;;;;;;;;6207975;28;20141;-75
2022/03/05 03:36:24;;;;;;;18.50;11.35;;;;;;;;;;6205953;28;20132;-78
2022/03/05 03:39:26;;;;;;;17.65;10.45;;;;;;;;;;6200296;28;20117;-75
2022/03/05 03:42:28;;;;;;;23.13;12.02;;;;;;;;;;6210301;28;20050;-78
2022/03/05 03:45:30;;;;;;;18.45;10.95;;;;;;;;;;6208198;28;20046;-74
2022/03/05 03:48:31;;;;;;;21.67;11.82;;;;;;;;;;6220236;28;20160;-75
2022/03/05 03:51:34;;;;;;;16.73;10.57;;;;;;;;;;6216527;28;20100;-73
2022/03/05 03:54:36;;;;;;;17.55;10.73;;;;;;;;;;6216008;28;20047;-75
2022/03/05 03:57:38;;;;;;;20.00;11.00;;;;;;;;;;6207234;28;20520;-75
2022/03/05 04:00:39;;;;;;;21.00;11.15;;;;;;;;;;6209114;28;20128;-74
2022/03/05 04:03:41;;;;;;;19.75;10.73;;;;;;;;;;6202473;28;20054;-71
2022/03/05 04:10:03;;;;;;;18.38;10.75;;;;;;;;;;6205714;28;20054;-74
2022/03/05 04:13:05;;;;;;;19.70;11.02;;;;;;;;;;6204030;28;20053;-75
2022/03/05 04:16:06;;;;;;;17.95;11.48;;;;;;;;;;6207959;28;20493;-73
2022/03/05 04:19:08;;;;;;;18.50;10.80;;;;;;;;;;6212526;28;20129;-74
2022/03/05 04:22:11;;;;;;;19.05;11.30;;;;;;;;;;6209440;28;20136;-73
2022/03/05 04:25:13;;;;;;;22.13;11.75;;;;;;;;;;6207549;28;20077;-72
2022/03/05 04:28:15;;;;;;;19.73;11.07;;;;;;;;;;6213896;28;20137;-73
2022/03/05 04:31:16;;;;;;;18.52;11.13;;;;;;;;;;6209100;28;20133;-74
2022/03/05 04:34:18;;;;;;;18.58;11.82;;;;;;;;;;6208909;28;20054;-74
2022/03/05 04:37:21;;;;;;;19.77;11.13;;;;;;;;;;6208329;28;20500;-75
2022/03/05 04:40:23;;;;;;;19.65;11.57;;;;;;;;;;6205937;28;20052;-74
2022/03/05 04:43:25;;;;;;;20.52;11.38;;;;;;;;;;6205524;28;20108;-74
2022/03/05 04:46:26;;;;;;;19.10;10.85;;;;;;;;;;6205463;28;20127;-74
2022/03/05 04:49:28;;;;;;;18.27;11.48;;;;;;;;;;6204252;28;20069;-73
2022/03/05 04:52:31;;;;;;;22.98;11.85;;;;;;;;;;6203827;28;20133;-74
2022/03/05 04:55:33;;;;;;;20.25;11.43;;;;;;;;;;6201133;28;20197;-81
2022/03/05 04:58:34;;;;;;;23.52;12.57;;;;;;;;;;6206106;28;20108;-74
2022/03/05 05:01:36;;;;;;;20.90;11.77;;;;;;;;;;6204205;28;20486;-76
2022/03/05 05:04:37;;;;;;;18.42;11.70;;;;;;;;;;6204336;28;20073;-74
2022/03/05 05:07:40;;;;;;;20.10;11.55;;;;;;;;;;6210169;28;20217;-74
2022/03/05 05:10:42;;;;;;;23.08;12.07;;;;;;;;;;6208811;28;20180;-75
2022/03/05 05:13:43;;;;;;;26.17;11.48;;;;;;;;;;6208773;28;20046;-75
2022/03/05 05:16:45;;;;;;;19.08;12.02;;;;;;;;;;6206536;28;20069;-75
2022/03/05 05:19:46;;;;;;;22.13;11.85;;;;;;;;;;6204244;28;20133;-74
2022/03/05 05:22:49;;;;;;;21.20;12.20;;;;;;;;;;6205356;28;20060;-76
2022/03/05 05:25:51;;;;;;;22.20;12.27;;;;;;;;;;6208304;28;20409;-75
2022/03/05 05:28:52;;;;;;;18.20;10.77;;;;;;;;;;6212155;28;20482;-75
2022/03/05 05:31:55;;;;;;;22.35;11.73;;;;;;;;;;6202098;28;20577;-74
2022/03/05 05:34:56;;;;;;;19.85;12.20;;;;;;;;;;6208095;28;20058;-74
2022/03/05 05:37:59;;;;;;;22.73;12.30;;;;;;;;;;6204294;28;20275;-74
2022/03/05 05:41:01;;;;;;;22.02;11.35;;;;;;;;;;6203592;28;20061;-74
2022/03/05 05:44:03;;;;;;;26.15;12.82;;;;;;;;;;6204374;28;20085;-74
2022/03/05 05:47:05;;;;;;;24.65;13.18;;;;;;;;;;6209297;28;20132;-76
2022/03/05 05:50:08;;;;;;;24.48;12.75;;;;;;;;;;6208146;28;20062;-74
2022/03/05 05:53:11;;;;;;;24.63;13.02;;;;;;;;;;6210434;28;20089;-74
2022/03/05 05:56:12;;;;;;;22.80;12.00;;;;;;;;;;6210935;28;20246;-74
2022/03/05 05:59:14;;;;;;;23.50;12.23;;;;;;;;;;6206609;28;20168;-74
2022/03/05 06:02:16;;;;;;;23.00;12.35;;;;;;;;;;6207620;28;20618;-74
2022/03/05 06:05:18;;;;;;;23.77;13.27;;;;;;;;;;6211455;28;20046;-75
2022/03/05 06:08:20;;;;;;;27.35;13.85;;;;;;;;;;6211998;28;20156;-74
2022/03/05 06:11:22;;;;;;;25.55;13.48;;;;;;;;;;6210269;28;20073;-74
2022/03/05 06:14:24;;;;;;;27.60;13.48;;;;;;;;;;6210185;28;20124;-74
2022/03/05 06:17:25;;;;;;;25.63;13.02;;;;;;;;;;6209699;28;20104;-74
2022/03/05 06:20:27;;;;;;;29.75;13.30;;;;;;;;;;6207761;28;20355;-74
2022/03/05 06:23:30;;;;;;;25.40;13.77;;;;;;;;;;6209134;28;20492;-75
2022/03/05 06:26:32;;;;;;;24.90;13.13;;;;;;;;;;6208794;28;20049;-74
2022/03/05 06:29:34;;;;;;;25.25;13.07;;;;;;;;;;6213991;28;20061;-74
2022/03/05 06:32:35;;;;;;;23.05;13.38;;;;;;;;;;6211357;28;20125;-75
2022/03/05 06:35:37;;;;;;;27.60;13.85;;;;;;;;;;6209443;28;20490;-75
2022/03/05 06:38:39;;;;;;;23.27;11.88;;;;;;;;;;6209410;28;20125;-74
2022/03/05 06:41:41;;;;;;;25.35;14.00;;;;;;;;;;6211854;28;20111;-74
2022/03/05 06:44:43;;;;;;;26.30;12.77;;;;;;;;;;6212505;28;20080;-74
2022/03/05 06:47:45;;;;;;;24.60;13.00;;;;;;;;;;6205863;28;20076;-74
2022/03/05 06:50:46;;;;;;;26.58;12.27;;;;;;;;;;6209419;28;20054;-74
2022/03/05 06:53:49;;;;;;;25.92;12.93;;;;;;;;;;6209198;28;20173;-74
2022/03/05 06:56:51;;;;;;;25.67;12.30;;;;;;;;;;6207965;28;20403;-74
2022/03/05 06:59:52;;;;;;;24.10;12.90;;;;;;;;;;6207411;28;20502;-74
2022/03/05 07:02:54;;;;;;;25.20;13.85;;;;;;;;;;6206437;28;20050;-76
2022/03/05 07:05:55;;;;;;;25.75;12.68;;;;;;;;;;6204664;28;20117;-76
2022/03/05 07:08:58;;;;;;;29.05;13.40;;;;;;;;;;6211298;28;20046;-73
2022/03/05 07:12:00;;;;;;;23.35;12.68;;;;;;;;;;6208847;28;20042;-74
2022/03/05 07:15:01;;;;;;;24.23;13.85;;;;;;;;;;6212103;28;20178;-75
2022/03/05 07:18:03;;;;;;;24.77;13.05;;;;;;;;;;6213828;28;20128;-76
2022/03/05 07:21:05;;;;;;;24.98;12.35;;;;;;;;;;6213575;28;20050;-75
2022/03/05 07:24:08;;;;;;;27.08;13.65;;;;;;;;;;6212276;28;20050;-75
2022/03/05 07:27:10;;;;;;;29.10;14.00;;;;;;;;;;6214438;28;20045;-75
2022/03/05 07:30:12;;;;;;;22.83;13.00;;;;;;;;;;6209466;28;20455;-76
2022/03/05 07:33:14;;;;;;;23.00;11.82;;;;;;;;;;6207557;28;20112;-76
2022/03/05 07:36:16;;;;;;;25.70;13.35;;;;;;;;;;6208961;28;20663;-76
2022/03/05 07:39:19;;;;;;;26.13;13.23;;;;;;;;;;6206768;28;20379;-73
2022/03/05 07:42:21;;;;;;;25.17;13.55;;;;;;;;;;6203878;28;20058;-75
2022/03/05 07:45:23;;;;;;;26.65;13.45;;;;;;;;;;6204185;28;20124;-76
2022/03/05 07:48:25;;;;;;;25.63;14.05;;;;;;;;;;6208591;28;20674;-76
2022/03/05 07:51:27;;;;;;;25.67;13.82;;;;;;;;;;6215873;28;20053;-72
2022/03/05 07:54:29;;;;;;;27.80;12.98;;;;;;;;;;6212043;28;20042;-75
2022/03/05 07:57:32;;;;;;;27.15;12.95;;;;;;;;;;6210805;28;20053;-77
2022/03/05 08:00:34;;;;;;;23.63;13.05;;;;;;;;;;6210339;28;20093;-75
2022/03/05 08:03:36;;;;;;;24.60;13.05;;;;;;;;;;6211929;28;20129;-74
2022/03/05 08:06:38;;;;;;;27.20;13.73;;;;;;;;;;6208761;28;20052;-78
2022/03/05 08:09:42;;;;;;;25.75;13.40;;;;;;;;;;6207033;28;20037;-71
2022/03/05 08:12:43;;;;;;;23.85;12.75;;;;;;;;;;6204299;28;20561;-73
2022/03/05 08:15:45;;;;;;;25.55;12.80;;;;;;;;;;6204310;28;20108;-75
2022/03/05 08:18:46;;;;;;;26.13;12.52;;;;;;;;;;6206141;28;20132;-74
2022/03/05 08:21:48;;;;;;;23.33;12.85;;;;;;;;;;6200759;28;20042;-73
2022/03/05 08:24:51;;;;;;;19.85;11.48;;;;;;;;;;6209485;28;20633;-75
2022/03/05 08:27:52;;;;;;;25.00;12.45;;;;;;;;;;6206660;28;20132;-75
2022/03/05 08:30:54;;;;;;;24.20;12.88;;;;;;;;;;6212700;28;20056;-74
2022/03/05 08:33:58;;;;;;;26.00;12.68;;;;;;;;;;6213911;28;20571;-75
2022/03/05 08:36:59;;;;;;;27.48;13.45;;;;;;;;;;6209091;28;20054;-74
2022/03/05 08:40:02;;;;;;;22.88;12.57;;;;;;;;;;6208236;28;20465;-74
2022/03/05 08:43:04;;;;;;;22.23;12.43;;;;;;;;;;6207130;28;20117;-76
2022/03/05 08:46:07;;;;;;;28.38;13.00;;;;;;;;;;6207215;28;20535;-74
2022/03/05 08:49:08;;;;;;;25.98;12.40;;;;;;;;;;6205737;28;20402;-75
2022/03/05 08:52:10;;;;;;;21.88;12.55;;;;;;;;;;6205925;28;20137;-75
2022/03/05 08:55:16;;;;;;;20.60;11.32;;;;;;;;;;6199771;28;20050;-75
2022/03/05 08:58:18;;;;;;;21.15;11.88;;;;;;;;;;6203274;28;20046;-75
2022/03/05 09:01:20;;;;;;;19.67;12.18;;;;;;;;;;6204719;28;20153;-75
2022/03/05 09:04:21;;;;;;;22.65;12.32;;;;;;;;;;6209965;28;20061;-75
2022/03/05 09:07:23;;;;;;;22.27;11.95;;;;;;;;;;6205126;28;20171;-74
2022/03/05 09:10:26;;;;;;;23.33;12.52;;;;;;;;;;6211178;28;20132;-73
2022/03/05 09:13:27;;;;;;;20.20;11.55;;;;;;;;;;6208219;28;20490;-73
2022/03/05 09:16:29;;;;;;;19.65;11.75;;;;;;;;;;6208855;28;20177;-74
2022/03/05 09:19:30;;;;;;;21.25;11.88;;;;;;;;;;6207402;28;20777;-67
2022/03/05 09:22:33;;;;;;;21.90;11.55;;;;;;;;;;6204917;28;20046;-72
2022/03/05 09:25:36;;;;;;;21.50;11.75;;;;;;;;;;6199758;28;20062;-72
2022/03/05 09:28:38;;;;;;;20.45;12.13;;;;;;;;;;6203567;28;20458;-70
2022/03/05 09:31:41;;;;;;;22.50;11.93;;;;;;;;;;6201196;28;20072;-71
2022/03/05 09:34:43;;;;;;;23.10;12.00;;;;;;;;;;6204085;28;20046;-72
2022/03/05 09:37:44;;;;;;;20.75;11.38;;;;;;;;;;6204968;28;20092;-71
2022/03/05 09:40:47;;;;;;;19.45;11.55;;;;;;;;;;6202751;28;20133;-70
2022/03/05 09:43:49;;;;;;;19.95;11.23;;;;;;;;;;6202047;28;20038;-71
2022/03/05 09:46:51;;;;;;;22.23;9.95;;;;;;;;;;6207762;28;20112;-73
2022/03/05 09:49:53;;;;;;;18.10;10.32;;;;;;;;;;6209545;28;20049;-73
2022/03/05 09:52:55;;;;;;;19.02;10.65;;;;;;;;;;6206019;28;20116;-71
2022/03/05 09:55:59;;;;;;;19.40;9.80;;;;;;;;;;6206362;28;20124;-74
2022/03/05 09:59:00;;;;;;;18.65;10.48;;;;;;;;;;6200186;28;20046;-73
2022/03/05 10:02:03;;;;;;;18.63;11.00;;;;;;;;;;6201824;28;20141;-74
2022/03/05 10:05:19;;;;;;;19.55;10.65;;;;;;;;;;6205445;28;20072;-74
2022/03/05 10:08:20;;;;;;;17.85;9.65;;;;;;;;;;6202153;28;20057;-73
2022/03/05 10:11:24;;;;;;;17.02;9.88;;;;;;;;;;6205504;28;20050;-72
2022/03/05 10:14:26;;;;;;;16.08;10.52;;;;;;;;;;6206503;28;20119;-73
2022/03/05 10:17:27;;;;;;;16.55;9.45;;;;;;;;;;6202302;28;20046;-71
2022/03/05 10:20:31;;;;;;;16.85;9.25;;;;;;;;;;6203593;28;20054;-73
2022/03/05 10:23:34;;;;;;;16.02;10.73;;;;;;;;;;6203951;28;21008;-74
2022/03/05 10:26:53;;;;;;;16.88;10.00;;;;;;;;;;6205706;28;20554;-71
2022/03/05 10:29:57;;;;;;;15.80;10.20;;;;;;;;;;6205085;28;20085;-73
2022/03/05 10:32:58;;;;;;;19.65;9.63;;;;;;;;;;6206191;28;20133;-72
2022/03/05 10:36:02;;;;;;;15.93;10.38;;;;;;;;;;6203476;28;20131;-72
2022/03/05 10:39:04;;;;;;;14.55;9.00;;;;;;;;;;6204652;28;20054;-72
2022/03/05 10:42:18;;;;;;;15.05;9.00;;;;;;;;;;6209352;28;20093;-71
2022/03/05 10:45:19;;;;;;;17.52;9.80;;;;;;;;;;6207890;28;20054;-73
2022/03/05 10:48:25;;;;;;;17.13;9.50;;;;;;;;;;6212441;28;20607;-71
2022/03/05 10:51:27;;;;;;;18.77;10.02;;;;;;;;;;6207238;28;20136;-71
2022/03/05 10:54:30;;;;;;;17.27;9.70;;;;;;;;;;6208525;28;20046;-73
2022/03/05 10:57:33;;;;;;;16.40;9.75;;;;;;;;;;6205226;28;20091;-73
2022/03/05 11:00:34;;;;;;;16.70;10.95;;;;;;;;;;6204468;28;20056;-71
2022/03/05 11:03:36;;;;;;;17.52;10.50;;;;;;;;;;6206968;28;20249;-72
2022/03/05 11:06:39;;;;;;;15.45;10.30;;;;;;;;;;6206501;28;20190;-71
2022/03/05 11:09:42;;;;;;;13.13;9.45;;;;;;;;;;6209700;28;20136;-72
2022/03/05 11:12:51;;;;;;;17.92;9.68;;;;;;;;;;6205978;28;20070;-71
2022/03/05 11:15:52;;;;;;;17.23;9.70;;;;;;;;;;6207117;28;20046;-73
2022/03/05 11:18:54;;;;;;;14.52;9.57;;;;;;;;;;6212694;28;20048;-71
2022/03/05 11:21:56;;;;;;;14.50;9.77;;;;;;;;;;6210176;28;20535;-71
2022/03/05 11:24:58;;;;;;;14.55;9.43;;;;;;;;;;6212065;28;20054;-70
2022/03/05 11:28:04;;;;;;;14.82;9.73;;;;;;;;;;6208763;28;20042;-72
2022/03/05 11:31:16;;;;;;;15.75;9.95;;;;;;;;;;6207310;28;20054;-71
2022/03/05 11:34:20;;;;;;;12.75;9.63;;;;;;;;;;6206131;28;20121;-71
2022/03/05 11:37:25;;;;;;;14.43;9.95;;;;;;;;;;6204437;28;20288;-72
2022/03/05 11:40:39;;;;;;;14.05;9.93;;;;;;;;;;6205648;28;20133;-68
2022/03/05 11:43:46;;;;;;;12.88;9.23;;;;;;;;;;6204086;28;20038;-66
2022/03/05 11:46:49;;;;;;;15.57;9.93;;;;;;;;;;6207319;28;20513;-65
2022/03/05 11:50:13;;;;;;;17.35;9.63;;;;;;;;;;6206182;28;20068;-77
2022/03/05 11:53:14;;;;;;;;;;;;;;;;;;6212304;28;20065;-75
2022/03/05 11:56:24;;;;;;;14.68;9.30;;;;;;;;;;6214018;28;20388;-79
2022/03/05 11:59:34;;;;;;;14.88;9.63;;;;;;;;;;6212283;28;20042;-76
2022/03/05 12:02:39;;;;;;;16.33;9.48;;;;;;;;;;6211386;28;20089;-77
2022/03/05 12:05:54;;;;;;;14.77;10.00;;;;;;;;;;6208337;28;20518;-83
2022/03/05 12:08:56;;;;;;;15.40;9.57;;;;;;;;;;6209550;28;20129;-77
2022/03/05 12:11:59;;;;;;;17.00;9.70;;;;;;;;;;6205956;28;20382;-75
2022/03/05 12:15:15;;;;;;;14.88;9.10;;;;;;;;;;6205685;28;20133;-76
2022/03/05 12:18:16;;;;;;;14.43;9.57;;;;;;;;;;6202439;28;20576;-76
2022/03/05 12:21:24;;;;;;;14.57;9.98;;;;;;;;;;6203879;28;20056;-74
2022/03/05 12:24:27;;;;;;;14.02;9.48;;;;;;;;;;6203452;28;20121;-77
2022/03/05 12:27:30;;;;;;;15.10;9.63;;;;;;;;;;6212327;28;20068;-70
2022/03/05 12:30:35;;;;;;;14.40;8.60;;;;;;;;;;6210347;28;20115;-72
2022/03/05 12:33:37;;;;;;;16.70;10.02;;;;;;;;;;6210223;28;20185;-70
2022/03/05 12:36:42;;;;;;;13.82;9.68;;;;;;;;;;6208144;28;20125;-73
2022/03/05 12:39:44;;;;;;;15.52;10.18;;;;;;;;;;6210293;28;20099;-75
2022/03/05 12:42:48;;;;;;;14.20;9.32;;;;;;;;;;6210772;28;20136;-74
2022/03/05 12:45:51;;;;;;;16.60;9.35;;;;;;;;;;6205492;28;20192;-74
2022/03/05 12:48:52;;;;;;;16.98;10.18;;;;;;;;;;6207145;28;20405;-72
2022/03/05 12:51:54;;;;;;;15.27;10.32;;;;;;;;;;6205808;28;20042;-73
2022/03/05 12:54:55;;;;;;;14.02;9.65;;;;;;;;;;6206424;28;20054;-73
2022/03/05 12:57:59;;;;;;;13.73;9.85;;;;;;;;;;6200355;28;20133;-74
2022/03/05 13:01:05;;;;;;;14.43;9.65;;;;;;;;;;6202930;28;20080;-73
2022/03/05 13:04:06;;;;;;;16.55;10.95;;;;;;;;;;6209874;28;20076;-71
2022/03/05 13:07:08;;;;;;;18.67;10.75;;;;;;;;;;6215084;28;20390;-71
2022/03/05 13:10:10;;;;;;;12.77;10.23;;;;;;;;;;6214635;28;20455;-71
2022/03/05 13:13:13;;;;;;;14.57;9.88;;;;;;;;;;6208614;28;20064;-72
2022/03/05 13:16:22;;;;;;;14.43;10.23;;;;;;;;;;6207308;28;20045;-71
2022/03/05 13:19:23;;;;;;;14.10;9.82;;;;;;;;;;6207503;28;20052;-73
2022/03/05 13:22:26;;;;;;;14.63;10.30;;;;;;;;;;6206745;28;20058;-72
2022/03/05 13:25:29;;;;;;;13.65;9.90;;;;;;;;;;6205141;28;20046;-71
2022/03/05 13:28:31;;;;;;;14.80;10.43;;;;;;;;;;6207334;28;20060;-73
2022/03/05 13:31:34;;;;;;;13.90;9.90;;;;;;;;;;6200939;28;20123;-72
2022/03/05 13:34:36;;;;;;;15.10;10.10;;;;;;;;;;6200557;28;20208;-72
2022/03/05 13:37:38;;;;;;;14.63;11.02;;;;;;;;;;6201802;28;20065;-72
2022/03/05 13:40:42;;;;;;;12.85;9.73;;;;;;;;;;6202854;28;20047;-71
2022/03/05 13:43:44;;;;;;;13.48;10.32;;;;;;;;;;6205045;28;20062;-73
2022/03/05 13:46:47;;;;;;;13.65;10.48;;;;;;;;;;6207762;28;20478;-71
2022/03/05 13:49:50;;;;;;;15.02;10.13;;;;;;;;;;6212794;28;20167;-71
2022/03/05 13:52:54;;;;;;;15.40;10.25;;;;;;;;;;6210156;28;20392;-71
2022/03/05 13:56:05;;;;;;;14.43;9.55;;;;;;;;;;6206242;28;20129;-71
2022/03/05 13:59:07;;;;;;;14.82;10.10;;;;;;;;;;6200490;28;20145;-72
2022/03/05 14:02:11;;;;;;;14.05;9.90;;;;;;;;;;6205446;28;20050;-72
2022/03/05 14:05:15;;;;;;;12.85;9.85;;;;;;;;;;6200406;28;20202;-72
2022/03/05 14:08:16;;;;;;;15.30;10.15;;;;;;;;;;6201802;28;20074;-70
2022/03/05 14:11:18;;;;;;;12.70;9.98;;;;;;;;;;6201821;28;20204;-79
2022/03/05 14:14:19;;;;;;;15.00;10.60;;;;;;;;;;6207880;28;20181;-73
2022/03/05 14:17:33;;;;;;;13.38;9.73;;;;;;;;;;6209799;28;20050;-73
2022/03/05 14:20:41;;;;;;;15.23;10.60;;;;;;;;;;6212365;28;20181;-71
2022/03/05 14:23:43;;;;;;;15.45;10.30;;;;;;;;;;6206410;28;20206;-71
2022/03/05 14:26:45;;;;;;;14.07;11.25;;;;;;;;;;6210745;28;20613;-72
2022/03/05 14:29:48;;;;;;;14.88;10.20;;;;;;;;;;6211090;28;20501;-71
2022/03/05 14:32:51;;;;;;;14.38;10.38;;;;;;;;;;6211370;28;20181;-72
2022/03/05 14:35:53;;;;;;;16.58;11.57;;;;;;;;;;6210372;28;20103;-72
2022/03/05 14:38:54;;;;;;;14.73;10.85;;;;;;;;;;6209098;28;20129;-72
2022/03/05 14:41:56;;;;;;;17.75;11.65;;;;;;;;;;6209086;28;20058;-71
2022/03/05 14:44:57;;;;;;;16.23;10.93;;;;;;;;;;6209709;28;20057;-72
2022/03/05 14:48:01;;;;;;;15.75;10.82;;;;;;;;;;6207313;28;20042;-70
2022/03/05 14:51:02;;;;;;;15.68;10.85;;;;;;;;;;6207436;28;20046;-71
2022/03/05 14:54:06;;;;;;;18.15;11.02;;;;;;;;;;6206158;28;20061;-71
2022/03/05 14:57:08;;;;;;;15.73;11.27;;;;;;;;;;6206457;28;20050;-71
2022/03/05 15:00:12;;;;;;;16.83;11.23;;;;;;;;;;6205159;28;20134;-73
2022/03/05 15:03:14;;;;;;;;;;;;;;;;;;6211491;28;20054;-72
2022/03/05 15:06:16;;;;;;;15.10;11.02;;;;;;;;;;6208819;28;19944;-72
2022/03/05 15:09:18;;;;;;;15.80;11.23;;;;;;;;;;6203631;28;20173;-71
2022/03/05 15:12:20;;;;;;;15.95;12.35;;;;;;;;;;6208768;28;20170;-72
2022/03/05 15:15:22;;;;;;;16.92;11.88;;;;;;;;;;6204728;28;20050;-71
2022/03/05 15:18:25;;;;;;;17.13;12.52;;;;;;;;;;6206215;28;20103;-70
2022/03/05 15:21:27;;;;;;;17.60;12.40;;;;;;;;;;6202045;28;20042;-71
2022/03/05 15:24:28;;;;;;;19.42;12.88;;;;;;;;;;6207635;28;20116;-70
2022/03/05 15:27:30;;;;;;;16.58;12.63;;;;;;;;;;6209975;28;20098;-70
2022/03/05 15:30:32;;;;;;;17.88;12.38;;;;;;;;;;6208070;28;20399;-70
2022/03/05 15:33:35;;;;;;;15.55;11.45;;;;;;;;;;6209802;28;20585;-72
2022/03/05 15:36:37;;;;;;;17.58;11.73;;;;;;;;;;6205567;28;20045;-71
2022/03/05 15:39:39;;;;;;;19.75;11.88;;;;;;;;;;6202944;28;20049;-71
2022/03/05 15:42:41;;;;;;;16.13;12.32;;;;;;;;;;6203706;28;20176;-72
2022/03/05 15:45:42;;;;;;;19.13;13.00;;;;;;;;;;6202982;28;20441;-73
2022/03/05 15:48:45;;;;;;;16.23;11.60;;;;;;;;;;6211818;28;20051;-71
2022/03/05 15:51:46;;;;;;;17.02;12.52;;;;;;;;;;6208531;28;20188;-72
2022/03/05 15:54:48;;;;;;;20.55;12.90;;;;;;;;;;6207744;28;20046;-71
2022/03/05 15:57:50;;;;;;;15.80;11.52;;;;;;;;;;6209544;28;20121;-73
2022/03/05 16:00:51;;;;;;;18.48;12.13;;;;;;;;;;6211733;28;20069;-71
2022/03/05 16:03:54;;;;;;;17.75;12.00;;;;;;;;;;6210537;28;20072;-71
2022/03/05 16:06:55;;;;;;;17.38;12.52;;;;;;;;;;6204764;28;20077;-71
2022/03/05 16:09:57;;;;;;;16.05;11.80;;;;;;;;;;6207041;28;20204;-70
2022/03/05 16:12:59;;;;;;;17.58;12.05;;;;;;;;;;6208411;28;20105;-71
2022/03/05 16:16:00;;;;;;;17.27;12.40;;;;;;;;;;6206460;28;20046;-71
2022/03/05 16:19:03;;;;;;;19.13;12.00;;;;;;;;;;6206373;28;20136;-71
2022/03/05 16:22:05;;;;;;;15.47;11.87;;;;;;;;;;6207031;28;20042;-72
2022/03/05 16:25:08;;;;;;;16.13;12.52;;;;;;;;;;6205465;28;20050;-71
2022/03/05 16:28:10;;;;;;;19.60;12.73;;;;;;;;;;6205266;28;20521;-72
2022/03/05 16:31:12;;;;;;;15.52;12.00;;;;;;;;;;6204940;28;20151;-73
2022/03/05 16:34:15;;;;;;;18.73;12.40;;;;;;;;;;6214354;28;20137;-73
2022/03/05 16:37:16;;;;;;;19.10;11.60;;;;;;;;;;6205997;28;20092;-72
2022/03/05 16:40:21;;;;;;;18.48;12.43;;;;;;;;;;6209785;28;20099;-72
2022/03/05 16:43:22;;;;;;;15.75;11.57;;;;;;;;;;6209987;28;20066;-71
2022/03/05 16:46:30;;;;;;;17.52;12.32;;;;;;;;;;6207172;28;20094;-71
2022/03/05 16:49:33;;;;;;;21.38;12.32;;;;;;;;;;6203116;28;20116;-73
2022/03/05 16:52:35;;;;;;;18.90;12.13;;;;;;;;;;6204141;28;20185;-71
2022/03/05 16:55:37;;;;;;;17.90;11.48;;;;;;;;;;6201503;28;20130;-72
2022/03/05 16:58:38;;;;;;;19.40;11.80;;;;;;;;;;6203100;28;20046;-72
2022/03/05 17:01:40;;;;;;;17.52;10.95;;;;;;;;;;6203191;28;20418;-72
2022/03/05 17:04:43;;;;;;;19.33;11.60;;;;;;;;;;6204628;28;20574;-71
2022/03/05 17:07:44;;;;;;;18.10;11.82;;;;;;;;;;6212566;28;20455;-71
2022/03/05 17:10:46;;;;;;;20.20;11.55;;;;;;;;;;6217413;28;20124;-71
2022/03/05 17:13:48;;;;;;;18.17;11.85;;;;;;;;;;6214219;28;20050;-72
2022/03/05 17:16:49;;;;;;;17.48;10.60;;;;;;;;;;6210820;28;20054;-71
2022/03/05 17:19:53;;;;;;;19.77;11.30;;;;;;;;;;6210372;28;20533;-71
2022/03/05 17:22:54;;;;;;;16.30;10.38;;;;;;;;;;6203730;28;20073;-72
2022/03/05 17:25:56;;;;;;;15.95;10.57;;;;;;;;;;6207008;28;20054;-71
2022/03/05 17:28:57;;;;;;;18.65;10.52;;;;;;;;;;6206161;28;20535;-71
2022/03/05 17:31:59;;;;;;;17.23;10.30;;;;;;;;;;6204416;28;20193;-71
2022/03/05 17:35:02;;;;;;;19.50;10.23;;;;;;;;;;6206116;28;20568;-70
2022/03/05 17:38:04;;;;;;;18.65;10.93;;;;;;;;;;6202524;28;20077;-71
2022/03/05 17:41:06;;;;;;;16.38;9.68;;;;;;;;;;6200379;28;20094;-70
2022/03/05 17:44:07;;;;;;;16.10;9.73;;;;;;;;;;6201442;28;20092;-73
2022/03/05 17:47:09;;;;;;;18.63;10.10;;;;;;;;;;6203123;28;20046;-71